createdAt,value
2023-03-12T00:02:53.219Z,1.05
2023-03-12T00:05:56.786Z,1.03
2023-03-12T00:09:02.760Z,1.03
2023-03-12T00:12:06.561Z,1.06
2023-03-12T00:15:11.714Z,0.97
2023-03-12T00:18:15.934Z,0.95
2023-03-12T00:21:20.869Z,0.97
2023-03-12T00:24:24.364Z,0.97
2023-03-12T00:27:28.986Z,0.95
2023-03-12T00:30:32.098Z,0.92
2023-03-12T00:33:36.810Z,0.93
2023-03-12T00:36:42.071Z,0.88
2023-03-12T00:39:44.942Z,0.82
2023-03-12T00:42:48.767Z,0.81
2023-03-12T00:45:51.984Z,0.83
2023-03-12T00:48:55.669Z,0.78
2023-03-12T00:51:58.968Z,0.76
2023-03-12T00:55:02.249Z,0.80
2023-03-12T00:58:05.447Z,0.82
2023-03-12T01:01:08.417Z,0.81
2023-03-12T01:04:13.222Z,0.85
2023-03-12T01:07:17.188Z,0.85
2023-03-12T01:10:21.299Z,0.83
2023-03-12T01:13:24.701Z,0.81
2023-03-12T01:16:31.054Z,0.79
2023-03-12T01:19:37.441Z,0.80
2023-03-12T01:22:41.377Z,0.79
2023-03-12T01:25:44.374Z,0.79
2023-03-12T01:28:47.871Z,0.75
2023-03-12T01:31:51.630Z,0.75
2023-03-12T01:34:55.989Z,0.75
2023-03-12T01:37:59.940Z,0.75
2023-03-12T01:41:03.506Z,0.70
2023-03-12T01:44:07.207Z,0.75
2023-03-12T01:47:12.265Z,0.66
2023-03-12T01:50:15.664Z,0.66
2023-03-12T01:53:18.974Z,0.52
2023-03-12T01:56:23.262Z,0.47
2023-03-12T01:59:33.691Z,0.36
2023-03-12T02:02:37.873Z,0.33
2023-03-12T02:05:44.141Z,0.33
2023-03-12T02:08:48.775Z,0.21
2023-03-12T02:11:52.168Z,0.19
2023-03-12T02:14:55.261Z,0.14
2023-03-12T02:17:58.560Z,0.13
2023-03-12T02:21:08.189Z,0.07
2023-03-12T02:24:19.902Z,0.04
2023-03-12T02:27:23.284Z,-0.02
2023-03-12T02:30:26.916Z,-0.06
2023-03-12T02:33:30.216Z,-0.11
2023-03-12T02:36:32.892Z,-0.15
2023-03-12T02:39:36.891Z,-0.22
2023-03-12T02:42:39.455Z,-0.26
2023-03-12T02:45:42.341Z,-0.27
2023-03-12T02:48:45.682Z,-0.32
2023-03-12T02:51:50.376Z,-0.33
2023-03-12T02:54:53.615Z,-0.37
2023-03-12T02:57:56.502Z,-0.41
2023-03-12T03:00:59.600Z,-0.48
2023-03-12T03:04:03.352Z,-0.49
2023-03-12T03:07:06.287Z,-0.54
2023-03-12T03:10:10.065Z,-0.55
2023-03-12T03:13:14.240Z,-0.57
2023-03-12T03:16:17.687Z,-0.63
2023-03-12T03:19:20.487Z,-0.65
2023-03-12T03:22:23.661Z,-0.70
2023-03-12T03:25:26.389Z,-0.63
2023-03-12T03:28:30.669Z,-0.73
2023-03-12T03:31:33.634Z,-0.71
2023-03-12T03:34:36.486Z,-0.74
2023-03-12T03:37:39.885Z,-0.73
2023-03-12T03:40:43.039Z,-0.77
2023-03-12T03:43:46.179Z,-0.80
2023-03-12T03:46:49.166Z,-0.74
2023-03-12T03:49:52.217Z,-0.73
2023-03-12T03:52:55.256Z,-0.66
2023-03-12T03:55:57.994Z,-0.65
2023-03-12T03:59:03.097Z,-0.67
2023-03-12T04:02:06.172Z,-0.66
2023-03-12T04:05:09.960Z,-0.65
2023-03-12T04:08:13.589Z,-0.70
2023-03-12T04:11:17.385Z,-0.68
2023-03-12T04:14:20.500Z,-0.71
2023-03-12T04:17:24.199Z,-0.69
2023-03-12T04:20:27.171Z,-0.74
2023-03-12T04:23:29.957Z,-0.79
2023-03-12T04:26:33.124Z,-0.81
2023-03-12T04:29:40.107Z,-0.81
2023-03-12T04:32:42.814Z,-0.89
2023-03-12T04:35:54.529Z,-0.87
2023-03-12T04:39:00.700Z,-0.94
2023-03-12T04:42:04.052Z,-1.06
2023-03-12T04:45:10.885Z,-1.07
2023-03-12T04:48:14.191Z,-1.00
2023-03-12T04:51:16.784Z,-0.93
2023-03-12T04:54:21.648Z,-0.95
2023-03-12T04:57:26.137Z,-0.98
2023-03-12T05:00:29.886Z,-0.91
2023-03-12T05:03:33.821Z,-0.99
2023-03-12T05:06:36.434Z,-1.00
2023-03-12T05:09:39.795Z,-0.97
2023-03-12T05:12:43.952Z,-0.93
2023-03-12T05:15:48.225Z,-0.75
2023-03-12T05:18:50.915Z,-0.66
2023-03-12T05:21:53.860Z,-0.61
2023-03-12T05:24:56.683Z,-0.52
2023-03-12T05:27:59.982Z,-0.49
2023-03-12T05:31:13.548Z,-0.37
2023-03-12T05:34:17.302Z,-0.34
2023-03-12T05:37:20.011Z,-0.35
2023-03-12T05:40:22.853Z,-0.29
2023-03-12T05:43:27.601Z,-0.27
2023-03-12T05:46:30.474Z,-0.21
2023-03-12T05:49:33.876Z,-0.25
2023-03-12T05:52:36.406Z,-0.23
2023-03-12T05:55:40.265Z,-0.16
2023-03-12T05:58:43.119Z,-0.10
2023-03-12T06:01:46.404Z,0.03
2023-03-12T06:04:50.287Z,0.09
2023-03-12T06:07:53.605Z,0.23
2023-03-12T06:10:57.062Z,0.58
2023-03-12T06:13:59.788Z,2.59
2023-03-12T06:17:05.547Z,3.85
2023-03-12T06:20:10.340Z,5.62
2023-03-12T06:23:13.732Z,5.61
2023-03-12T06:26:18.090Z,4.84
2023-03-12T06:29:25.453Z,6.00
2023-03-12T06:32:29.843Z,7.12
2023-03-12T06:35:34.284Z,7.22
2023-03-12T06:38:38.992Z,6.25
2023-03-12T06:41:42.477Z,5.14
2023-03-12T06:44:47.319Z,5.65
2023-03-12T06:47:50.673Z,3.66
2023-03-12T06:50:54.476Z,3.09
2023-03-12T06:53:58.952Z,2.73
2023-03-12T06:57:03.169Z,2.76
2023-03-12T07:00:06.083Z,2.52
2023-03-12T07:03:10.333Z,2.62
2023-03-12T07:06:15.889Z,2.81
2023-03-12T07:09:20.312Z,2.70
2023-03-12T07:12:23.152Z,2.37
2023-03-12T07:15:25.996Z,3.00
2023-03-12T07:18:29.833Z,3.07
2023-03-12T07:21:32.985Z,3.18
2023-03-12T07:24:36.304Z,3.33
2023-03-12T07:27:39.599Z,3.24
2023-03-12T07:30:42.792Z,3.38
2023-03-12T07:33:46.212Z,3.45
2023-03-12T07:36:49.146Z,3.47
2023-03-12T07:39:53.471Z,3.11
2023-03-12T07:42:56.089Z,3.27
2023-03-12T07:45:59.023Z,3.42
2023-03-12T07:49:02.689Z,3.68
2023-03-12T07:52:05.614Z,3.44
2023-03-12T07:55:11.857Z,3.48
2023-03-12T07:58:16.306Z,2.85
2023-03-12T08:01:19.314Z,2.99
2023-03-12T08:04:23.153Z,2.79
2023-03-12T08:07:26.275Z,3.04
2023-03-12T08:10:29.081Z,3.21
2023-03-12T08:13:32.710Z,3.41
2023-03-12T08:16:36.330Z,3.75
2023-03-12T08:19:39.905Z,3.53
2023-03-12T08:22:42.811Z,3.47
2023-03-12T08:25:48.507Z,3.44
2023-03-12T08:28:52.021Z,3.43
2023-03-12T08:32:05.107Z,3.77
2023-03-12T08:35:11.094Z,3.89
2023-03-12T08:38:14.873Z,3.87
2023-03-12T08:41:18.861Z,4.03
2023-03-12T08:44:23.429Z,4.01
2023-03-12T08:47:26.176Z,4.07
2023-03-12T08:50:31.566Z,4.18
2023-03-12T08:53:35.466Z,4.01
2023-03-12T08:56:42.509Z,4.21
2023-03-12T08:59:46.024Z,4.45
2023-03-12T09:02:50.452Z,4.32
2023-03-12T09:06:03.954Z,4.40
2023-03-12T09:09:10.567Z,4.54
2023-03-12T09:12:13.414Z,4.68
2023-03-12T09:15:17.780Z,4.89
2023-03-12T09:18:22.570Z,4.53
2023-03-12T09:21:27.101Z,4.58
2023-03-12T09:24:30.516Z,4.94
2023-03-12T09:27:38.564Z,4.79
2023-03-12T09:30:44.590Z,5.25
2023-03-12T09:33:46.989Z,5.48
2023-03-12T09:36:50.138Z,5.63
2023-03-12T09:39:54.697Z,5.83
2023-03-12T09:43:03.720Z,5.66
2023-03-12T09:46:12.788Z,5.86
2023-03-12T09:49:20.645Z,6.04
2023-03-12T09:52:32.158Z,6.10
2023-03-12T09:55:40.237Z,6.26
2023-03-12T09:58:45.218Z,6.08
2023-03-12T10:01:53.912Z,6.21
2023-03-12T10:05:00.542Z,6.13
2023-03-12T10:08:23.540Z,5.91
2023-03-12T10:11:54.075Z,6.03
2023-03-12T10:15:15.731Z,6.39
2023-03-12T10:18:28.123Z,6.61
2023-03-12T10:21:38.274Z,6.80
2023-03-12T10:24:57.557Z,6.63
2023-03-12T10:28:13.544Z,6.89
2023-03-12T10:31:30.634Z,7.12
2023-03-12T10:34:51.687Z,7.41
2023-03-12T10:38:00.025Z,7.27
2023-03-12T10:41:12.822Z,7.38
2023-03-12T10:44:28.986Z,7.31
2023-03-12T10:47:40.309Z,7.64
2023-03-12T10:50:43.003Z,8.18
2023-03-12T10:53:48.545Z,8.47
2023-03-12T10:56:52.441Z,8.28
2023-03-12T11:00:08.553Z,8.15
2023-03-12T11:03:22.643Z,8.04
2023-03-12T11:06:30.860Z,8.13
2023-03-12T11:09:34.154Z,8.11
2023-03-12T11:12:38.244Z,7.78
2023-03-12T11:15:42.699Z,7.88
2023-03-12T11:19:00.819Z,8.10
2023-03-12T11:22:09.635Z,7.97
2023-03-12T11:25:24.410Z,8.15
2023-03-12T11:28:38.155Z,8.48
2023-03-12T11:31:47.356Z,8.62
2023-03-12T11:34:51.087Z,8.52
2023-03-12T11:38:17.274Z,8.69
2023-03-12T11:41:38.690Z,8.81
2023-03-12T11:44:57.039Z,8.71
2023-03-12T11:47:59.731Z,9.03
2023-03-12T11:51:11.525Z,8.75
2023-03-12T11:54:26.882Z,8.58
2023-03-12T11:57:50.329Z,8.50
2023-03-12T12:01:13.603Z,8.10
2023-03-12T12:04:35.421Z,8.23
2023-03-12T12:07:57.195Z,8.25
2023-03-12T12:11:20.945Z,8.02
2023-03-12T12:14:50.452Z,8.20
2023-03-12T12:17:56.340Z,8.42
2023-03-12T12:21:07.101Z,8.58
2023-03-12T12:24:32.733Z,8.03
2023-03-12T12:27:45.569Z,8.31
2023-03-12T12:30:55.705Z,8.61
2023-03-12T12:34:10.410Z,8.60
2023-03-12T12:37:25.941Z,8.58
2023-03-12T12:40:28.970Z,8.82
2023-03-12T12:43:35.831Z,8.59
2023-03-12T12:46:41.403Z,8.97
2023-03-12T12:49:46.853Z,8.93
2023-03-12T12:52:53.947Z,8.33
2023-03-12T12:56:03.283Z,8.80
2023-03-12T12:59:22.552Z,8.71
2023-03-12T13:02:29.842Z,8.47
2023-03-12T13:05:38.284Z,8.66
2023-03-12T13:08:41.155Z,8.76
2023-03-12T13:11:48.446Z,8.55
2023-03-12T13:14:52.870Z,8.62
2023-03-12T13:17:58.705Z,8.32
2023-03-12T13:21:15.864Z,8.44
2023-03-12T13:24:34.211Z,8.56
2023-03-12T13:27:39.425Z,8.51
2023-03-12T13:30:47.513Z,8.78
2023-03-12T13:33:51.882Z,8.58
2023-03-12T13:37:00.478Z,8.67
2023-03-12T13:40:10.013Z,8.74
2023-03-12T13:43:14.848Z,8.75
2023-03-12T13:46:17.601Z,8.85
2023-03-12T13:49:21.778Z,8.86
2023-03-12T13:52:31.401Z,8.74
2023-03-12T13:55:36.446Z,8.99
2023-03-12T13:58:48.463Z,9.00
2023-03-12T14:01:55.051Z,9.12
2023-03-12T14:05:06.389Z,9.04
2023-03-12T14:08:12.098Z,8.93
2023-03-12T14:11:24.980Z,8.90
2023-03-12T14:14:42.821Z,8.92
2023-03-12T14:17:47.555Z,8.89
2023-03-12T14:21:00.929Z,8.81
2023-03-12T14:24:06.025Z,8.98
2023-03-12T14:27:19.153Z,8.86
2023-03-12T14:30:26.408Z,8.81
2023-03-12T14:33:35.589Z,8.71
2023-03-12T14:36:51.171Z,8.79
2023-03-12T14:39:59.116Z,8.89
2023-03-12T14:43:01.600Z,8.63
2023-03-12T14:46:06.530Z,8.46
2023-03-12T14:49:11.066Z,8.55
2023-03-12T14:52:15.294Z,8.58
2023-03-12T14:55:23.758Z,8.70
2023-03-12T14:58:27.444Z,8.58
2023-03-12T15:01:32.816Z,8.56
2023-03-12T15:04:36.220Z,8.59
2023-03-12T15:07:40.138Z,8.71
2023-03-12T15:10:48.796Z,8.62
2023-03-12T15:13:53.376Z,8.43
2023-03-12T15:16:59.419Z,8.27
2023-03-12T15:20:11.105Z,8.08
2023-03-12T15:23:15.367Z,7.87
2023-03-12T15:26:22.077Z,7.63
2023-03-12T15:29:28.471Z,7.51
2023-03-12T15:32:32.707Z,7.52
2023-03-12T15:35:41.265Z,7.47
2023-03-12T15:38:49.294Z,7.50
2023-03-12T15:41:53.558Z,7.61
2023-03-12T15:45:00.664Z,7.60
2023-03-12T15:48:05.231Z,7.46
2023-03-12T15:51:17.211Z,7.43
2023-03-12T15:54:20.085Z,7.31
2023-03-12T15:57:26.211Z,7.14
2023-03-12T16:00:32.764Z,7.03
2023-03-12T16:03:35.647Z,6.89
2023-03-12T16:06:38.921Z,6.74
2023-03-12T16:09:42.937Z,6.61
2023-03-12T16:12:47.796Z,6.48
2023-03-12T16:15:51.881Z,6.37
2023-03-12T16:18:54.938Z,6.32
2023-03-12T16:21:59.742Z,6.25
2023-03-12T16:25:02.016Z,6.09
2023-03-12T16:28:06.744Z,5.97
2023-03-12T16:31:14.491Z,5.82
2023-03-12T16:34:18.018Z,5.72
2023-03-12T16:37:21.375Z,5.65
2023-03-12T16:40:33.378Z,5.51
2023-03-12T16:43:40.341Z,5.41
2023-03-12T16:46:46.882Z,5.28
2023-03-12T16:49:50.417Z,5.22
2023-03-12T16:52:53.402Z,5.12
2023-03-12T16:56:00.284Z,5.06
2023-03-12T16:59:06.728Z,4.95
2023-03-12T17:02:15.280Z,4.87
2023-03-12T17:05:18.270Z,4.80
2023-03-12T17:08:21.378Z,4.76
2023-03-12T17:11:27.621Z,4.67
2023-03-12T17:14:31.959Z,4.61
2023-03-12T17:17:35.993Z,4.54
2023-03-12T17:20:39.471Z,4.46
2023-03-12T17:23:43.089Z,4.37
2023-03-12T17:26:47.727Z,4.29
2023-03-12T17:29:53.357Z,4.27
2023-03-12T17:33:04.876Z,4.24
2023-03-12T17:36:10.716Z,4.23
2023-03-12T17:39:14.619Z,4.17
2023-03-12T17:42:19.437Z,4.10
2023-03-12T17:45:22.551Z,4.13
2023-03-12T17:48:25.315Z,4.07
2023-03-12T17:51:28.319Z,4.04
2023-03-12T17:54:31.490Z,3.92
2023-03-12T17:57:35.432Z,3.80
2023-03-12T18:00:38.596Z,3.77
2023-03-12T18:03:41.780Z,3.67
2023-03-12T18:06:44.563Z,3.62
2023-03-12T18:09:47.934Z,3.51
2023-03-12T18:12:52.748Z,3.44
2023-03-12T18:15:56.802Z,3.32
2023-03-12T18:19:00.999Z,3.31
2023-03-12T18:22:03.732Z,3.21
2023-03-12T18:25:07.510Z,3.12
2023-03-12T18:28:12.382Z,3.11
2023-03-12T18:31:15.915Z,3.06
2023-03-12T18:34:19.082Z,2.98
2023-03-12T18:37:22.844Z,2.85
2023-03-12T18:40:26.299Z,2.83
2023-03-12T18:43:30.546Z,2.74
2023-03-12T18:46:33.710Z,2.65
2023-03-12T18:49:37.623Z,2.72
2023-03-12T18:52:39.927Z,2.64
2023-03-12T18:55:51.511Z,2.49
2023-03-12T18:58:54.313Z,2.41
2023-03-12T19:01:57.142Z,2.35
2023-03-12T19:05:00.599Z,2.35
2023-03-12T19:08:06.236Z,2.28
2023-03-12T19:11:11.491Z,2.22
2023-03-12T19:14:14.765Z,2.26
2023-03-12T19:17:18.482Z,2.16
2023-03-12T19:20:22.616Z,2.05
2023-03-12T19:23:26.127Z,2.01
2023-03-12T19:26:31.492Z,2.04
2023-03-12T19:29:34.974Z,2.03
2023-03-12T19:32:43.751Z,2.09
2023-03-12T19:35:47.415Z,2.10
2023-03-12T19:38:51.026Z,2.05
2023-03-12T19:41:54.512Z,1.97
2023-03-12T19:44:57.414Z,1.92
2023-03-12T19:47:59.561Z,1.86
2023-03-12T19:51:06.147Z,1.91
2023-03-12T19:54:09.547Z,1.89
2023-03-12T19:57:12.834Z,1.91
2023-03-12T20:00:16.555Z,1.84
2023-03-12T20:03:21.184Z,1.95
2023-03-12T20:06:23.969Z,1.98
2023-03-12T20:09:26.753Z,1.98
2023-03-12T20:12:30.550Z,1.98
2023-03-12T20:15:34.862Z,1.84
2023-03-12T20:18:38.398Z,1.79
2023-03-12T20:21:42.782Z,1.72
2023-03-12T20:24:47.003Z,1.75
2023-03-12T20:27:51.335Z,1.75
2023-03-12T20:30:55.047Z,1.66
2023-03-12T20:33:58.542Z,1.68
2023-03-12T20:37:01.459Z,1.66
2023-03-12T20:40:06.287Z,1.71
2023-03-12T20:43:10.717Z,1.64
2023-03-12T20:46:14.285Z,1.55
2023-03-12T20:49:17.493Z,1.49
2023-03-12T20:52:20.580Z,1.49
2023-03-12T20:55:24.845Z,1.49
2023-03-12T20:58:28.746Z,1.58
2023-03-12T21:01:34.302Z,1.53
2023-03-12T21:04:38.631Z,1.50
2023-03-12T21:07:42.306Z,1.40
2023-03-12T21:10:44.881Z,1.37
2023-03-12T21:13:47.832Z,1.38
2023-03-12T21:16:53.190Z,1.41
2023-03-12T21:19:56.624Z,1.41
2023-03-12T21:22:59.670Z,1.42
2023-03-12T21:26:07.186Z,1.47
2023-03-12T21:29:12.875Z,1.64
2023-03-12T21:32:16.430Z,1.88
2023-03-12T21:35:21.906Z,2.12
2023-03-12T21:38:25.451Z,2.36
2023-03-12T21:41:29.259Z,2.49
2023-03-12T21:44:35.713Z,2.59
2023-03-12T21:47:38.931Z,2.65
2023-03-12T21:50:41.920Z,2.81
2023-03-12T21:53:45.330Z,2.78
2023-03-12T21:56:48.425Z,2.94
2023-03-12T21:59:53.030Z,2.98
2023-03-12T22:02:56.337Z,3.07
2023-03-12T22:05:59.539Z,3.35
2023-03-12T22:09:02.255Z,3.48
2023-03-12T22:12:05.826Z,3.58
2023-03-12T22:15:09.249Z,3.60
2023-03-12T22:18:12.800Z,3.55
2023-03-12T22:21:17.736Z,3.59
2023-03-12T22:24:21.353Z,3.50
2023-03-12T22:27:24.465Z,3.56
2023-03-12T22:30:27.655Z,3.70
2023-03-12T22:33:31.274Z,3.68
2023-03-12T22:36:34.670Z,3.64
2023-03-12T22:39:37.732Z,3.65
2023-03-12T22:42:41.475Z,3.55
2023-03-12T22:45:45.290Z,3.45
2023-03-12T22:48:49.702Z,3.42
2023-03-12T22:51:53.001Z,3.51
2023-03-12T22:54:55.585Z,3.74
2023-03-12T22:57:59.192Z,3.86
2023-03-12T23:01:02.373Z,3.94
2023-03-12T23:04:06.704Z,3.98
2023-03-12T23:07:16.246Z,3.88
2023-03-12T23:10:20.551Z,3.92
2023-03-12T23:13:24.586Z,3.98
2023-03-12T23:16:27.963Z,4.02
2023-03-12T23:19:35.293Z,4.04
2023-03-12T23:22:38.453Z,4.12
2023-03-12T23:25:41.481Z,4.17
2023-03-12T23:28:44.367Z,4.29
2023-03-12T23:31:46.901Z,4.43
2023-03-12T23:34:51.343Z,4.49
2023-03-12T23:37:57.707Z,4.61
2023-03-12T23:41:04.520Z,4.70
2023-03-12T23:44:07.282Z,4.79
2023-03-12T23:47:09.757Z,4.74
2023-03-12T23:50:13.100Z,4.75
2023-03-12T23:53:16.824Z,4.78
2023-03-12T23:56:21.513Z,4.74
2023-03-12T23:59:25.429Z,4.73
